Latest Coastal Weather Observations for Lord Howe Island

IDN60701

Issued at 4:11 am EST Wednesday 2 September 2015 (issued every 10 minutes, with the page automatically refreshed every 10 minutes)

About coastal observations | Map of coastal stations | Coastal observations for NSW | Marine services | Other Formats
Station Details ID: 200839 Name: LORD HOWE ISLAND AERO Lat: -31.54 Lon: 159.08 Height: 5.0 m
Data from the previous 72 hours. | See also: Recent months at Lord Howe Island
Date/Time
EST
Temp

°C
Wind Pressure Rain
since 9am
mm
Weather Cloud Vis
km
Sea
Height
m
Swell
Dir
 
Speed
knots
Gust
knots
hPa Trend Height
m
Period
s
Dir
02/04:00am 17.1 WSW 22 28 1013.7 - 2.6 - Partly cloudy 10 - - - -
02/03:30am 17.1 WSW 23 29 1013.4 - 2.6 - Partly cloudy 10 - - - -
02/03:00am 17.2 WSW 24 31 1013.2 - 2.6 - - 10 - - - -
02/02:30am 17.1 WSW 22 29 1013.1 - 2.6 - - 10 - - - -
02/02:00am 17.0 WSW 22 28 1013.4 - 2.6 - - 10 - - - -
02/01:30am 17.1 WSW 23 31 1013.5 - 2.6 - Partly cloudy 10 - - - -
02/01:00am 17.2 WSW 22 28 1013.4 - 2.6 - Partly cloudy 10 - - - -
02/12:30am 17.3 WSW 20 28 1013.2 - 2.6 - Partly cloudy 10 - - - -
02/12:00am 17.0 WSW 20 25 1013.3 - 2.6 - Partly cloudy 10 - - - -
 
Date/Time
EST
Temp

°C
Wind Pressure Rain
since 9am
mm
Weather Cloud Vis
km
Sea
Height
m
Swell
Dir
 
Speed
knots
Gust
knots
hPa Trend Height
m
Period
s
Dir
01/11:30pm 16.8 WSW 21 25 1013.3 - 2.6 - Mostly clear 10 - - - -
01/11:00pm 16.8 W 19 23 1013.3 - 2.6 - Partly cloudy 10 - - - -
01/10:31pm 16.1 SW 15 22 1013.3 - 2.6 - Partly cloudy 10 - - - -
01/10:30pm 16.1 SW 15 24 1013.3 - 2.6 - Partly cloudy 10 - - - -
01/10:13pm 14.6 SW 20 34 1013.5 - 2.6 - Partly cloudy 6 - - - -
01/10:04pm 16.3 WSW 23 34 1013.3 - 2.0 - Partly cloudy 10 - - - -
01/10:00pm 17.3 WSW 23 27 1013.3 - 2.0 - Partly cloudy 10 - - - -
01/09:30pm 17.1 WSW 21 26 1013.2 - 2.0 - Partly cloudy 10 - - - -
01/09:00pm 17.2 WSW 20 23 1013.3 - 2.0 - Partly cloudy 10 - - - -
01/08:30pm 17.1 WSW 18 23 1013.1 - 2.0 - Partly cloudy 10 - - - -
01/08:00pm 16.8 WSW 21 28 1013.0 - 2.0 - Partly cloudy 10 - - - -
01/07:30pm 17.2 WSW 23 26 1013.0 - 2.0 - Partly cloudy 10 - - - -
01/07:00pm 17.0 WSW 21 25 1012.7 - 2.0 - Partly cloudy 10 - - - -
01/06:30pm 17.0 WSW 19 25 1012.4 - 2.0 - - 10 - - - -
01/06:00pm 16.6 WSW 14 21 1012.1 - 2.0 - - 10 - - - -
01/05:30pm 15.6 SW 9 13 1011.9 - 2.0 - Cloudy 10 - - - -
01/05:15pm 15.3 SW 13 20 1011.7 - 2.0 - Partly cloudy 10 - - - -
01/05:00pm 14.8 WSW 19 34 1011.7 - 2.0 - Partly cloudy 4 - - - -
01/04:56pm 14.6 WSW 20 34 1011.5 - 1.6 - Partly cloudy 5 - - - -
01/04:53pm 16.6 WSW 18 34 1011.4 - 0.2 - Partly cloudy 10 - - - -
01/04:30pm 17.3 WSW 19 23 1011.3 - 0.0 - Partly cloudy 10 - - - -
01/04:00pm 17.7 WSW 21 25 1011.1 - 0.0 - Partly cloudy 10 - - - -
01/03:30pm 16.5 WSW 15 18 1011.1 - 0.0 - Partly cloudy 10 - - - -
01/03:00pm 16.5 SW 17 26 1011.1 - 0.0 - Partly cloudy 10 - - - -
01/02:43pm 17.8 WSW 20 34 1010.7 - 0.0 - Partly cloudy 10 - - - -
01/02:30pm 18.2 W 20 24 1010.9 F 0.0 Distant precip. Partly cloudy 25 - - - -
01/02:00pm 18.1 WSW 18 23 1011.0 - 0.0 - Partly cloudy 10 - - - -
01/01:30pm 18.2 WSW 20 25 1011.1 - 0.0 - Partly cloudy 10 - - - -
01/01:00pm 18.5 WSW 18 23 1011.2 - 0.0 - Partly cloudy 10 - - - -
01/12:30pm 18.3 WSW 19 22 1011.6 - 0.0 - Partly cloudy 10 - - - -
01/12:00pm 18.0 WSW 16 23 1011.8 - 0.0 - Partly cloudy 10 - - - -
01/11:30am 18.0 WSW 17 21 1012.0 R 0.0 Fine Partly cloudy 25 - - - -
01/11:00am 18.7 WSW 15 22 1012.3 - 0.0 - Partly cloudy 10 - - - -
01/10:30am 18.3 WSW 17 21 1012.6 - 0.0 - Partly cloudy 10 - - - -
01/10:00am 17.9 WSW 16 21 1012.7 - 0.0 - Partly cloudy 10 - - - -
01/09:30am 17.6 SW 13 18 1012.7 - 0.0 - Partly cloudy 10 - - - -
01/09:00am 17.5 WSW 14 19 1012.6 - 0.0 - Mostly cloudy 10 - - - -
01/08:30am 16.4 SW 15 23 1012.6 R 3.6 Distant precip. Partly cloudy 25 - - - -
01/08:00am 17.8 WSW 15 20 1012.4 - 3.4 Showers Mostly cloudy 10 - - - -
01/07:30am 17.4 WSW 14 20 1012.2 - 3.4 - Mostly clear 10 - - - -
01/07:00am 17.1 SW 13 19 1012.0 - 3.4 - Partly cloudy 10 - - - -
01/06:30am 16.9 WSW 17 21 1011.7 - 3.4 - Mostly cloudy 10 - - - -
01/06:00am 16.6 WSW 16 21 1011.5 - 3.4 - Partly cloudy 10 - - - -
01/05:30am 15.4 WSW 16 25 1011.2 F 3.4 Showers Mostly cloudy 15 - - - -
01/05:23am 16.7 WSW 15 25 1011.0 - 3.2 - Partly cloudy 10 - - - -
01/05:00am 16.8 WSW 16 20 1010.9 - 3.2 - Partly cloudy 10 - - - -
01/04:30am 16.5 WSW 15 21 1010.9 - 3.2 - Partly cloudy 10 - - - -
01/04:00am 16.1 WSW 15 20 1010.8 - 3.2 - - 10 - - - -
01/03:30am 14.9 W 15 18 1010.7 - 3.2 - Partly cloudy 10 - - - -
01/03:23am 14.7 W 15 18 1010.8 - 3.2 - Partly cloudy 10 - - - -
01/03:00am 13.9 WSW 18 34 1011.1 - 2.0 - Partly cloudy 2 - - - -
01/02:57am 14.9 WSW 15 33 1010.9 - 0.6 - Partly cloudy 4 - - - -
01/02:30am 16.4 W 15 17 1010.8 - 0.0 - Mostly cloudy 10 - - - -
01/02:00am 17.1 WSW 13 19 1011.0 - 0.0 - Partly cloudy 10 - - - -
01/01:30am 17.1 WSW 14 19 1011.2 - 0.0 - Partly cloudy 10 - - - -
01/01:00am 17.1 WSW 14 19 1011.5 - 0.0 - Partly cloudy 10 - - - -
01/12:30am 17.1 WSW 14 20 1011.7 - 0.0 - Partly cloudy 10 - - - -
01/12:00am 16.8 WSW 12 18 1011.9 - 0.0 - Partly cloudy 10 - - - -
 
Date/Time
EST
Temp

°C
Wind Pressure Rain
since 9am
mm
Weather Cloud Vis
km
Sea
Height
m
Swell
Dir
 
Speed
knots
Gust
knots
hPa Trend Height
m
Period
s
Dir
31/11:30pm 16.7 WSW 13 17 1012.0 - 0.0 - Mostly clear 10 - - - -
31/11:00pm 16.5 WSW 15 19 1012.1 - 0.0 - Partly cloudy 10 - - - -
31/10:30pm 17.1 WSW 15 19 1012.0 - 0.0 - Partly cloudy 10 - - - -
31/10:00pm 17.1 WSW 15 19 1012.2 - 0.0 - Partly cloudy 10 - - - -
31/09:30pm 17.1 WSW 15 19 1012.1 - 0.0 - Partly cloudy 10 - - - -
31/09:00pm 17.1 WSW 15 18 1012.0 - 0.0 - Partly cloudy 10 - - - -
31/08:30pm 17.1 WSW 13 17 1012.0 - 0.0 - Cloudy 10 - - - -
31/08:00pm 17.1 WSW 13 17 1011.8 - 0.0 - Partly cloudy 10 - - - -
31/07:30pm 17.2 SW 12 17 1011.7 - 0.0 - Partly cloudy 10 - - - -
31/07:00pm 17.1 WSW 13 17 1011.7 - 0.0 - Partly cloudy 10 - - - -
31/06:30pm 17.1 SW 12 18 1011.4 - 0.0 - Partly cloudy 10 - - - -
31/06:00pm 17.1 WSW 13 17 1011.2 - 0.0 - Partly cloudy 10 - - - -
31/05:30pm 17.1 SW 11 15 1010.9 - 0.0 - Partly cloudy 10 - - - -
31/05:00pm 17.1 SW 12 18 1010.7 - 0.0 - Partly cloudy 10 - - - -
31/04:30pm 17.3 SW 12 18 1010.5 - 0.0 - Partly cloudy 10 - - - -
31/04:00pm 17.6 SW 12 18 1010.4 - 0.0 - Partly cloudy 10 - - - -
31/03:30pm 17.7 SW 10 15 1010.3 - 0.0 - Partly cloudy 10 - - - -
31/03:00pm 17.8 WSW 13 19 1010.3 - 0.0 - Partly cloudy 10 - - - -
31/02:30pm 18.3 SW 12 18 1010.2 F 0.0 Distant precip. Partly cloudy 30 - - - -
31/02:00pm 17.8 WSW 12 17 1010.4 - 0.0 - Partly cloudy 10 - - - -
31/01:30pm 18.1 WSW 14 17 1010.6 - 0.0 - Partly cloudy 10 - - - -
31/01:00pm 17.8 WSW 12 15 1010.8 - 0.0 - Partly cloudy 10 - - - -
31/12:30pm 18.4 WSW 13 16 1010.9 - 0.0 - Mostly cloudy 10 - - - -
31/12:00pm 18.3 WSW 11 16 1011.1 - 0.0 - Partly cloudy 10 - - - -
31/11:30am 18.1 SW 11 16 1011.3 R 0.0 Fine Partly cloudy 30 - - - -
31/11:00am 18.0 SW 11 16 1011.4 - 0.0 - Partly cloudy 10 - - - -
31/10:30am 16.9 WSW 12 15 1011.8 - 0.0 - Mostly clear 10 - - - -
31/10:00am 18.0 WSW 12 16 1011.8 - 0.0 - Mostly clear 10 - - - -
31/09:30am 17.3 WSW 14 18 1011.8 - 0.0 - Mostly clear 10 - - - -
31/09:00am 17.2 SW 10 14 1011.9 - 0.0 - Mostly clear 10 - - - -
31/08:30am 17.6 SSW 9 13 1011.9 F 10.8 Distant precip. Mostly cloudy 25 - - - -
31/08:00am 17.6 WSW 11 15 1011.7 - 10.8 - Partly cloudy 10 - - - -
31/07:30am 16.8 SSW 9 15 1011.8 - 10.8 - Partly cloudy 10 - - - -
31/07:00am 16.7 SW 11 16 1011.6 - 10.8 - Mostly cloudy 10 - - - -
31/06:30am 16.5 WSW 11 16 1011.4 - 10.8 - Mostly cloudy 10 - - - -
31/06:00am 16.0 SW 12 17 1011.3 - 10.8 - Partly cloudy 10 - - - -
31/05:30am 16.2 WSW 16 22 1011.1 F 10.8 Distant precip. Partly cloudy 25 - - - -
31/05:22am 16.2 WSW 13 19 1011.0 - 10.8 - Partly cloudy 10 - - - -
31/05:04am 15.1 SW 12 19 1011.3 - 10.6 - Partly cloudy 6 - - - -
31/05:00am 15.9 SW 12 18 1011.2 - 9.8 - Partly cloudy 10 - - - -
31/04:34am 15.5 WSW 15 25 1011.1 - 9.8 - Partly cloudy 10 - - - -
31/04:30am 15.6 WSW 16 25 1011.1 - 9.8 - Partly cloudy 10 - - - -
31/04:00am 16.6 WSW 15 17 1011.1 - 9.6 - - 10 - - - -
31/03:30am 16.7 WSW 17 20 1011.1 - 9.6 - Partly cloudy 10 - - - -
31/03:00am 16.6 WSW 13 16 1011.3 - 9.6 - - 10 - - - -
31/02:30am 16.6 WSW 14 18 1011.7 - 9.6 - Mostly clear 10 - - - -
31/02:00am 16.6 WSW 12 17 1012.1 - 9.6 - Partly cloudy 10 - - - -
31/01:30am 16.5 SW 10 14 1012.6 - 9.6 - Partly cloudy 10 - - - -
31/01:00am 16.4 WSW 9 14 1012.9 - 9.6 - Partly cloudy 10 - - - -
31/12:30am 16.0 SSW 7 11 1012.9 - 9.6 - Partly cloudy 10 - - - -
31/12:00am 16.1 SSW 7 11 1013.0 - 9.6 - Partly cloudy 10 - - - -
 
Date/Time
EST
Temp

°C
Wind Pressure Rain
since 9am
mm
Weather Cloud Vis
km
Sea
Height
m
Swell
Dir
 
Speed
knots
Gust
knots
hPa Trend Height
m
Period
s
Dir
30/11:30pm 15.7 SSW 6 10 1013.2 - 9.6 - Partly cloudy 10 - - - -
30/11:00pm 16.3 SSW 7 9 1013.4 - 9.6 - Partly cloudy 10 - - - -
30/10:30pm 15.1 SSW 5 7 1013.7 - 9.6 - Partly cloudy 10 - - - -
30/10:00pm 15.3 SSW 5 8 1014.2 - 9.6 - Partly cloudy 10 - - - -
30/09:30pm 14.8 S 3 6 1014.2 - 9.6 - Partly cloudy 10 - - - -
30/09:00pm 13.5 CALM 0 0 1014.2 - 9.6 - Partly cloudy 10 - - - -
30/08:30pm 13.3 CALM 0 0 1014.4 - 9.6 - Mostly cloudy 10 - - - -
30/08:00pm 12.9 CALM 0 0 1014.3 - 9.6 - Partly cloudy 10 - - - -
30/07:30pm 12.8 S 3 4 1014.3 - 9.6 - Partly cloudy 10 - - - -
30/07:00pm 13.2 SSW 2 4 1014.4 - 9.6 - Partly cloudy 10 - - - -
30/06:30pm 13.2 E 1 3 1014.0 - 9.6 - Partly cloudy 10 - - - -
30/06:00pm 14.2 ENE 2 5 1014.0 - 9.6 - Partly cloudy 10 - - - -
30/05:30pm 14.2 SSE 1 4 1014.0 - 9.6 - Cloudy 10 - - - -
30/05:00pm 14.6 S 3 4 1013.8 - 9.4 - Partly cloudy 10 - - - -
30/04:30pm 15.0 S 3 4 1014.0 - 9.0 - Partly cloudy 10 - - - -
30/04:00pm 15.5 NE 1 4 1013.7 - 8.4 - Partly cloudy 10 - - - -
30/03:30pm 16.0 E 4 7 1013.5 - 8.2 - Partly cloudy 10 - - - -
30/03:00pm 16.1 E 5 7 1013.7 - 8.2 - Partly cloudy 10 - - - -
30/02:30pm 16.2 E 7 10 1013.9 F 8.2 Rain Mostly cloudy 20 - - - -
30/02:00pm 17.0 SE 3 4 1014.0 - 8.0 Rain Mostly clear 9 - - - -
30/01:30pm 17.0 CALM 0 3 1014.3 - 7.8 Rain Mostly clear 10 - - - -
30/01:00pm 16.8 WSW 4 7 1014.5 - 7.8 Rain Mostly clear 10 - - - -
30/12:30pm 16.5 E 7 9 1014.8 - 7.8 Rain Mostly clear 9 - - - -
30/12:00pm 16.1 S 3 5 1015.6 - 7.6 Showers Mostly clear 3 - - - -
30/11:30am 16.3 WSW 7 14 1016.0 F 4.6 Showers Cloudy 2 - - - -
30/11:08am 16.6 SW 9 13 1016.2 - 0.4 Showers Partly cloudy 2 - - - -
30/11:00am 17.1 SSW 11 15 1016.1 - 0.0 Showers Mostly clear 10 - - - -
30/10:30am 18.9 W 5 6 1016.4 - 0.0 - Mostly clear 10 - - - -
30/10:00am 18.9 WSW 5 8 1016.5 - 0.0 - Mostly clear 10 - - - -
30/09:30am 18.8 W 7 8 1016.8 - 0.0 - Mostly clear 10 - - - -
30/09:00am 18.8 W 6 9 1017.1 - 0.0 - Mostly clear 10 - - - -
30/08:30am 18.3 W 5 6 1017.4 F 0.0 Fine Cloudy 25 - - - -
30/08:00am 17.9 W 5 7 1017.3 - 0.0 - Mostly clear 10 - - - -
30/07:30am 17.7 WNW 5 7 1017.2 - 0.0 - Mostly clear 10 - - - -
30/07:00am 16.0 CALM 0 0 1017.1 - 0.0 - Partly cloudy 10 - - - -
30/06:30am 15.4 CALM 0 0 1017.1 - 0.0 - Partly cloudy 10 - - - -
30/06:00am 15.1 CALM 0 0 1017.0 - 0.0 - Partly cloudy 10 - - - -
30/05:30am 14.7 CALM 0 0 1017.0 F 0.0 Fine Cloudy 25 - - - -
30/05:00am 14.1 CALM 0 0 1016.5 - 0.0 - Partly cloudy 10 - - - -
30/04:30am 14.7 CALM 0 0 1016.8 - 0.0 - - 10 - - - -
30/04:00am 14.6 CALM 0 0 1016.8 - 0.0 - - 10 - - - -

Other Formats:

Comma delimited format used in spreadsheet applications
http://www.bom.gov.au/fwo/IDN60701/IDN60701.94995.axf

JavaScript Object Notation format (JSON) in row-major order
http://www.bom.gov.au/fwo/IDN60701/IDN60701.94995.json